createdAt,value
2018-03-15T00:00:43.335Z,4.70
2018-03-15T00:03:16.735Z,4.80
2018-03-15T00:05:44.349Z,4.80
2018-03-15T00:08:12.037Z,4.70
2018-03-15T00:10:40.838Z,4.70
2018-03-15T00:13:09.424Z,4.70
2018-03-15T00:15:37.368Z,4.70
2018-03-15T00:18:05.761Z,4.70
2018-03-15T00:20:33.357Z,4.70
2018-03-15T00:23:00.929Z,4.70
2018-03-15T00:25:29.375Z,4.70
2018-03-15T00:27:57.074Z,4.70
2018-03-15T00:30:26.206Z,4.70
2018-03-15T00:32:54.056Z,4.70
2018-03-15T00:35:21.623Z,4.70
2018-03-15T00:37:49.661Z,4.70
2018-03-15T00:40:17.522Z,4.60
2018-03-15T00:42:45.824Z,4.50
2018-03-15T00:45:13.450Z,4.50
2018-03-15T00:47:41.613Z,4.50
2018-03-15T00:50:09.256Z,4.40
2018-03-15T00:52:36.805Z,4.50
2018-03-15T00:55:04.582Z,4.50
2018-03-15T00:57:32.472Z,4.50
2018-03-15T01:00:00.050Z,4.50
2018-03-15T01:02:27.710Z,4.60
2018-03-15T01:04:55.256Z,4.70
2018-03-15T01:07:22.869Z,4.80
2018-03-15T01:09:51.170Z,4.80
2018-03-15T01:12:18.812Z,4.80
2018-03-15T01:14:46.394Z,4.80
2018-03-15T01:17:14.646Z,4.80
2018-03-15T01:19:42.590Z,4.80
2018-03-15T01:22:10.276Z,4.70
2018-03-15T01:24:37.866Z,4.60
2018-03-15T01:27:05.928Z,4.60
2018-03-15T01:29:33.763Z,4.60
2018-03-15T01:32:01.499Z,4.60
2018-03-15T01:34:29.711Z,4.60
2018-03-15T01:36:57.473Z,4.50
2018-03-15T01:39:25.599Z,4.60
2018-03-15T01:41:53.228Z,4.60
2018-03-15T01:44:21.385Z,4.60
2018-03-15T01:46:48.976Z,4.70
2018-03-15T01:49:17.709Z,4.70
2018-03-15T01:51:46.087Z,4.70
2018-03-15T01:54:13.599Z,4.70
2018-03-15T01:56:41.256Z,4.70
2018-03-15T01:59:09.355Z,4.70
2018-03-15T02:01:36.990Z,4.70
2018-03-15T02:04:04.511Z,4.70
2018-03-15T02:06:32.923Z,4.60
2018-03-15T02:09:00.451Z,4.60
2018-03-15T02:11:28.868Z,4.60
2018-03-15T02:13:56.393Z,4.60
2018-03-15T02:16:23.985Z,4.60
2018-03-15T02:18:51.652Z,4.60
2018-03-15T02:21:19.525Z,4.60
2018-03-15T02:23:47.069Z,4.70
2018-03-15T02:26:14.567Z,4.70
2018-03-15T02:28:42.152Z,4.70
2018-03-15T02:31:09.669Z,4.70
2018-03-15T02:33:37.219Z,4.70
2018-03-15T02:36:04.873Z,4.60
2018-03-15T02:38:32.423Z,4.50
2018-03-15T02:41:00.477Z,4.50
2018-03-15T02:43:28.944Z,4.50
2018-03-15T02:45:57.282Z,4.50
2018-03-15T02:48:25.022Z,4.50
2018-03-15T02:50:52.586Z,4.50
2018-03-15T02:53:20.981Z,4.60
2018-03-15T02:55:49.282Z,4.60
2018-03-15T02:58:16.840Z,4.70
2018-03-15T03:00:44.411Z,4.70
2018-03-15T03:03:13.465Z,4.70
2018-03-15T03:05:41.205Z,4.70
2018-03-15T03:08:08.781Z,4.70
2018-03-15T03:10:36.355Z,4.70
2018-03-15T03:13:03.957Z,4.80
2018-03-15T03:15:31.493Z,4.70
2018-03-15T03:17:59.692Z,4.80
2018-03-15T03:20:27.297Z,4.70
2018-03-15T03:22:55.424Z,4.70
2018-03-15T03:25:24.668Z,4.60
2018-03-15T03:27:52.281Z,4.60
2018-03-15T03:30:20.744Z,4.70
2018-03-15T03:32:48.284Z,4.70
2018-03-15T03:35:16.072Z,4.60
2018-03-15T03:37:43.630Z,4.50
2018-03-15T03:40:11.171Z,4.40
2018-03-15T03:42:38.767Z,4.30
2018-03-15T03:45:06.327Z,4.30
2018-03-15T03:47:33.909Z,4.20
2018-03-15T03:50:01.644Z,4.20
2018-03-15T03:52:29.204Z,4.30
2018-03-15T03:54:56.766Z,4.20
2018-03-15T03:57:24.374Z,4.20
2018-03-15T03:59:52.061Z,4.30
2018-03-15T04:02:20.331Z,4.30
2018-03-15T04:04:48.439Z,4.30
2018-03-15T04:07:16.050Z,4.30
2018-03-15T04:09:43.662Z,4.30
2018-03-15T04:12:11.488Z,4.40
2018-03-15T04:14:39.108Z,4.40
2018-03-15T04:17:06.655Z,4.50
2018-03-15T04:19:34.244Z,4.50
2018-03-15T04:22:02.240Z,4.50
2018-03-15T04:24:29.912Z,4.50
2018-03-15T04:26:57.726Z,4.40
2018-03-15T04:29:25.477Z,4.30
2018-03-15T04:31:53.544Z,4.30
2018-03-15T04:34:21.106Z,4.20
2018-03-15T04:36:48.670Z,4.10
2018-03-15T04:39:18.024Z,4.00
2018-03-15T04:41:45.625Z,4.00
2018-03-15T04:44:13.184Z,4.10
2018-03-15T04:46:40.897Z,4.00
2018-03-15T04:49:08.865Z,4.00
2018-03-15T04:51:36.940Z,4.10
2018-03-15T04:54:04.550Z,4.00
2018-03-15T04:56:32.161Z,4.00
2018-03-15T04:58:59.961Z,4.00
2018-03-15T05:01:27.639Z,4.10
2018-03-15T05:03:55.192Z,4.20
2018-03-15T05:06:22.943Z,4.10
2018-03-15T05:08:50.681Z,4.10
2018-03-15T05:11:18.246Z,4.10
2018-03-15T05:13:45.805Z,4.10
2018-03-15T05:16:13.856Z,4.10
2018-03-15T05:18:41.434Z,4.10
2018-03-15T05:21:08.961Z,4.20
2018-03-15T05:23:38.484Z,4.20
2018-03-15T05:26:06.670Z,4.20
2018-03-15T05:28:34.137Z,4.20
2018-03-15T05:31:01.710Z,4.20
2018-03-15T05:33:30.035Z,4.20
2018-03-15T05:35:57.562Z,4.20
2018-03-15T05:38:25.077Z,4.20
2018-03-15T05:40:52.619Z,4.20
2018-03-15T05:43:20.980Z,4.00
2018-03-15T05:45:48.530Z,4.00
2018-03-15T05:48:16.050Z,4.00
2018-03-15T05:50:43.608Z,4.10
2018-03-15T05:53:11.157Z,4.10
2018-03-15T05:55:38.704Z,4.10
2018-03-15T05:58:06.643Z,4.20
2018-03-15T06:00:34.677Z,4.20
2018-03-15T06:03:02.348Z,4.20
2018-03-15T06:05:29.971Z,4.20
2018-03-15T06:07:58.278Z,4.10
2018-03-15T06:10:25.847Z,4.10
2018-03-15T06:12:53.371Z,4.00
2018-03-15T06:15:21.051Z,4.00
2018-03-15T06:17:48.643Z,4.00
2018-03-15T06:20:16.386Z,4.10
2018-03-15T06:22:43.920Z,4.10
2018-03-15T06:25:11.976Z,4.20
2018-03-15T06:27:39.694Z,4.10
2018-03-15T06:30:07.940Z,4.10
2018-03-15T06:32:36.081Z,4.00
2018-03-15T06:35:04.644Z,4.10
2018-03-15T06:37:32.191Z,4.10
2018-03-15T06:39:59.717Z,4.10
2018-03-15T06:42:28.476Z,4.10
2018-03-15T06:44:56.028Z,4.30
2018-03-15T06:47:23.553Z,4.40
2018-03-15T06:49:51.631Z,4.40
2018-03-15T06:52:19.209Z,4.40
2018-03-15T06:54:46.953Z,4.40
2018-03-15T06:57:14.594Z,4.40
2018-03-15T06:59:42.828Z,4.30
2018-03-15T07:02:10.437Z,4.10
2018-03-15T07:04:37.958Z,4.00
2018-03-15T07:07:10.004Z,3.90
2018-03-15T07:09:37.521Z,3.90
2018-03-15T07:12:05.607Z,3.90
2018-03-15T07:14:33.492Z,3.90
2018-03-15T07:17:01.296Z,3.90
2018-03-15T07:19:29.162Z,3.90
2018-03-15T07:21:56.687Z,4.00
2018-03-15T07:24:24.223Z,4.00
2018-03-15T07:26:52.857Z,3.90
2018-03-15T07:29:20.426Z,4.10
2018-03-15T07:31:48.228Z,4.10
2018-03-15T07:34:15.777Z,4.10
2018-03-15T07:36:43.362Z,4.10
2018-03-15T07:39:11.413Z,4.00
2018-03-15T07:41:39.250Z,4.10
2018-03-15T07:44:06.781Z,4.20
2018-03-15T07:46:34.542Z,4.40
2018-03-15T07:49:02.080Z,4.50
2018-03-15T07:51:29.616Z,4.50
2018-03-15T07:53:57.122Z,4.40
2018-03-15T07:56:25.587Z,4.20
2018-03-15T07:58:53.218Z,4.20
2018-03-15T08:01:20.982Z,4.10
2018-03-15T08:03:49.232Z,4.20
2018-03-15T08:06:16.791Z,4.30
2018-03-15T08:08:45.070Z,4.50
2018-03-15T08:11:13.376Z,4.50
2018-03-15T08:13:40.902Z,4.40
2018-03-15T08:16:08.470Z,4.40
2018-03-15T08:18:37.298Z,4.30
2018-03-15T08:21:05.510Z,4.30
2018-03-15T08:23:33.087Z,4.30
2018-03-15T08:26:02.438Z,4.30
2018-03-15T08:28:30.042Z,4.30
2018-03-15T08:30:58.476Z,4.30
2018-03-15T08:33:26.022Z,4.30
2018-03-15T08:35:54.014Z,4.30
2018-03-15T08:38:22.615Z,4.20
2018-03-15T08:40:50.631Z,4.30
2018-03-15T08:43:18.323Z,4.30
2018-03-15T08:45:45.880Z,4.50
2018-03-15T08:48:13.725Z,4.60
2018-03-15T08:50:41.393Z,4.70
2018-03-15T08:53:09.264Z,4.80
2018-03-15T08:55:37.842Z,4.90
2018-03-15T08:58:05.367Z,4.90
2018-03-15T09:00:33.178Z,5.00
2018-03-15T09:03:00.697Z,5.10
2018-03-15T09:05:29.106Z,5.10
2018-03-15T09:07:56.979Z,5.10
2018-03-15T09:10:24.527Z,5.10
2018-03-15T09:12:52.304Z,5.30
2018-03-15T09:15:19.868Z,5.30
2018-03-15T09:17:48.141Z,5.30
2018-03-15T09:20:15.733Z,5.30
2018-03-15T09:22:43.315Z,5.50
2018-03-15T09:25:12.311Z,5.90
2018-03-15T09:27:41.370Z,6.10
2018-03-15T09:30:08.957Z,6.10
2018-03-15T09:32:37.288Z,6.20
2018-03-15T09:35:05.024Z,6.20
2018-03-15T09:37:32.601Z,6.20
2018-03-15T09:40:00.150Z,6.30
2018-03-15T09:42:28.462Z,6.30
2018-03-15T09:44:56.544Z,6.10
2018-03-15T09:47:24.210Z,6.00
2018-03-15T09:49:51.806Z,5.80
2018-03-15T09:52:19.412Z,5.90
2018-03-15T09:54:47.019Z,5.80
2018-03-15T09:57:14.560Z,5.70
2018-03-15T09:59:42.157Z,5.80
2018-03-15T10:02:09.867Z,6.10
2018-03-15T10:04:39.395Z,6.50
2018-03-15T10:07:07.705Z,6.60
2018-03-15T10:09:35.262Z,6.60
2018-03-15T10:12:02.886Z,6.70
2018-03-15T10:14:30.386Z,6.50
2018-03-15T10:16:57.941Z,6.60
2018-03-15T10:19:25.908Z,6.30
2018-03-15T10:21:53.430Z,6.30
2018-03-15T10:24:21.761Z,6.10
2018-03-15T10:26:49.341Z,6.10
2018-03-15T10:29:17.550Z,6.00
2018-03-15T10:31:46.806Z,6.40
2018-03-15T10:34:14.341Z,6.40
2018-03-15T10:36:42.232Z,6.70
2018-03-15T10:39:10.543Z,6.70
2018-03-15T10:41:38.647Z,6.70
2018-03-15T10:44:06.183Z,6.60
2018-03-15T10:46:34.051Z,6.70
2018-03-15T10:49:02.083Z,6.80
2018-03-15T10:51:30.594Z,7.00
2018-03-15T10:53:58.247Z,7.30
2018-03-15T10:56:25.816Z,7.40
2018-03-15T10:58:53.860Z,7.60
2018-03-15T11:01:22.349Z,7.70
2018-03-15T11:03:50.294Z,7.70
2018-03-15T11:06:23.586Z,7.70
2018-03-15T11:08:56.825Z,8.00
2018-03-15T11:11:25.068Z,8.10
2018-03-15T11:13:53.003Z,8.30
2018-03-15T11:16:20.559Z,8.40
2018-03-15T11:18:48.440Z,8.20
2018-03-15T11:21:15.955Z,8.10
2018-03-15T11:23:44.079Z,7.90
2018-03-15T11:26:11.727Z,7.90
2018-03-15T11:28:39.253Z,7.70
2018-03-15T11:31:06.851Z,7.80
2018-03-15T11:33:35.019Z,7.60
2018-03-15T11:36:04.100Z,7.60
2018-03-15T11:38:31.635Z,7.60
2018-03-15T11:40:59.192Z,7.90
2018-03-15T11:43:26.759Z,7.70
2018-03-15T11:45:54.301Z,7.80
2018-03-15T11:48:22.990Z,7.90
2018-03-15T11:50:51.350Z,8.00
2018-03-15T11:53:19.170Z,8.10
2018-03-15T11:55:47.188Z,8.00
2018-03-15T11:58:15.064Z,8.00
2018-03-15T12:00:43.467Z,7.70
2018-03-15T12:03:11.008Z,7.70
2018-03-15T12:05:38.619Z,7.60
2018-03-15T12:08:06.916Z,7.70
2018-03-15T12:10:36.340Z,7.70
2018-03-15T12:13:03.969Z,7.80
2018-03-15T12:15:31.518Z,7.90
2018-03-15T12:17:59.893Z,7.70
2018-03-15T12:20:27.423Z,7.70
2018-03-15T12:22:55.008Z,7.80
2018-03-15T12:25:22.574Z,7.60
2018-03-15T12:27:50.161Z,7.60
2018-03-15T12:30:18.620Z,7.50
2018-03-15T12:32:46.333Z,7.60
2018-03-15T12:35:14.088Z,7.40
2018-03-15T12:37:42.572Z,7.40
2018-03-15T12:40:10.152Z,7.70
2018-03-15T12:42:37.774Z,7.80
2018-03-15T12:45:06.598Z,7.60
2018-03-15T12:47:34.809Z,7.60
2018-03-15T12:50:03.345Z,7.40
2018-03-15T12:52:31.037Z,7.40
2018-03-15T12:54:58.582Z,7.40
2018-03-15T12:57:26.182Z,7.40
2018-03-15T12:59:53.673Z,7.40
2018-03-15T13:02:21.257Z,7.50
2018-03-15T13:04:49.809Z,7.70
2018-03-15T13:07:17.373Z,7.80
2018-03-15T13:09:45.207Z,7.90
2018-03-15T13:12:12.835Z,7.80
2018-03-15T13:14:40.377Z,7.70
2018-03-15T13:17:07.911Z,7.80
2018-03-15T13:19:35.554Z,7.90
2018-03-15T13:22:03.159Z,7.80
2018-03-15T13:24:30.764Z,7.80
2018-03-15T13:26:58.980Z,7.90
2018-03-15T13:29:26.528Z,7.90
2018-03-15T13:31:54.084Z,7.90
2018-03-15T13:34:22.381Z,7.50
2018-03-15T13:36:50.198Z,7.50
2018-03-15T13:39:18.661Z,7.20
2018-03-15T13:41:46.826Z,7.20
2018-03-15T13:44:14.502Z,7.20
2018-03-15T13:46:42.046Z,7.10
2018-03-15T13:49:09.576Z,7.00
2018-03-15T13:51:37.124Z,6.90
2018-03-15T13:54:05.439Z,6.80
2018-03-15T13:56:33.001Z,6.80
2018-03-15T13:59:00.892Z,6.80
2018-03-15T14:01:28.396Z,6.70
2018-03-15T14:03:56.029Z,6.70
2018-03-15T14:06:23.737Z,6.80
2018-03-15T14:08:52.041Z,7.00
2018-03-15T14:11:20.225Z,6.90
2018-03-15T14:13:47.795Z,6.80
2018-03-15T14:16:15.319Z,6.60
2018-03-15T14:18:42.844Z,6.60
2018-03-15T14:21:10.743Z,6.70
2018-03-15T14:23:38.457Z,6.90
2018-03-15T14:26:07.068Z,7.00
2018-03-15T14:28:34.601Z,7.00
2018-03-15T14:31:03.237Z,7.00
2018-03-15T14:33:31.667Z,6.70
2018-03-15T14:35:59.376Z,6.60
2018-03-15T14:38:26.940Z,6.70
2018-03-15T14:40:55.306Z,6.80
2018-03-15T14:43:23.293Z,6.90
2018-03-15T14:45:50.819Z,6.90
2018-03-15T14:48:18.531Z,6.80
2018-03-15T14:50:46.913Z,6.80
2018-03-15T14:53:14.680Z,6.80
2018-03-15T14:55:42.696Z,6.80
2018-03-15T14:58:10.256Z,6.90
2018-03-15T15:00:39.295Z,6.90
2018-03-15T15:03:06.848Z,6.90
2018-03-15T15:05:34.378Z,6.80
2018-03-15T15:08:01.918Z,6.80
2018-03-15T15:10:29.487Z,6.90
2018-03-15T15:12:57.921Z,6.60
2018-03-15T15:15:25.628Z,6.50
2018-03-15T15:17:54.042Z,6.40
2018-03-15T15:20:21.600Z,6.40
2018-03-15T15:22:49.235Z,6.60
2018-03-15T15:25:17.910Z,6.60
2018-03-15T15:27:46.289Z,6.40
2018-03-15T15:30:14.616Z,6.50
2018-03-15T15:32:42.290Z,6.40
2018-03-15T15:35:09.919Z,6.40
2018-03-15T15:37:37.652Z,6.40
2018-03-15T15:40:05.221Z,6.30
2018-03-15T15:42:34.477Z,6.40
2018-03-15T15:45:02.321Z,6.40
2018-03-15T15:47:32.443Z,6.50
2018-03-15T15:50:00.040Z,6.40
2018-03-15T15:52:28.364Z,6.20
2018-03-15T15:54:56.270Z,6.20
2018-03-15T15:57:24.362Z,6.20
2018-03-15T15:59:52.896Z,6.20
2018-03-15T16:02:21.322Z,6.20
2018-03-15T16:04:49.045Z,6.20
2018-03-15T16:07:16.900Z,6.20
2018-03-15T16:09:44.470Z,6.10
2018-03-15T16:12:12.077Z,6.00
2018-03-15T16:14:40.310Z,6.00
2018-03-15T16:17:07.845Z,6.00
2018-03-15T16:19:36.696Z,6.10
2018-03-15T16:22:05.017Z,6.00
2018-03-15T16:24:32.877Z,6.00
2018-03-15T16:27:00.775Z,5.90
2018-03-15T16:29:28.320Z,5.80
2018-03-15T16:31:55.998Z,5.70
2018-03-15T16:34:24.082Z,5.70
2018-03-15T16:36:52.115Z,5.70
2018-03-15T16:39:19.751Z,5.70
2018-03-15T16:41:47.899Z,5.80
2018-03-15T16:44:15.469Z,5.70
2018-03-15T16:46:43.024Z,5.70
2018-03-15T16:49:10.651Z,5.70
2018-03-15T16:51:38.256Z,5.70
2018-03-15T16:54:05.869Z,5.60
2018-03-15T16:56:33.705Z,5.50
2018-03-15T16:59:02.138Z,5.40
2018-03-15T17:01:29.709Z,5.40
2018-03-15T17:03:57.261Z,5.40
2018-03-15T17:06:24.965Z,5.30
2018-03-15T17:08:52.732Z,5.20
2018-03-15T17:11:21.073Z,5.30
2018-03-15T17:13:48.719Z,5.30
2018-03-15T17:16:16.333Z,5.20
2018-03-15T17:18:45.063Z,5.10
2018-03-15T17:21:12.813Z,5.00
2018-03-15T17:23:40.469Z,4.90
2018-03-15T17:26:08.354Z,4.90
2018-03-15T17:28:36.721Z,4.90
2018-03-15T17:31:04.449Z,4.90
2018-03-15T17:33:32.831Z,4.90
2018-03-15T17:36:00.418Z,4.90
2018-03-15T17:38:28.413Z,4.90
2018-03-15T17:40:56.005Z,4.90
2018-03-15T17:43:23.552Z,4.80
2018-03-15T17:45:51.103Z,4.80
2018-03-15T17:48:19.059Z,4.80
2018-03-15T17:50:46.640Z,4.80
2018-03-15T17:53:14.239Z,4.80
2018-03-15T17:55:42.602Z,4.70
2018-03-15T17:58:11.025Z,4.60
2018-03-15T18:00:38.745Z,4.60
2018-03-15T18:03:06.947Z,4.60
2018-03-15T18:05:34.555Z,4.60
2018-03-15T18:08:02.396Z,4.50
2018-03-15T18:10:29.983Z,4.50
2018-03-15T18:12:57.793Z,4.50
2018-03-15T18:15:26.403Z,4.40
2018-03-15T18:17:54.257Z,4.30
2018-03-15T18:20:21.797Z,4.20
2018-03-15T18:22:50.345Z,4.30
2018-03-15T18:25:17.938Z,4.30
2018-03-15T18:27:45.503Z,4.30
2018-03-15T18:30:14.629Z,4.40
2018-03-15T18:32:43.080Z,4.30
2018-03-15T18:35:10.828Z,4.40
2018-03-15T18:37:38.388Z,4.30
2018-03-15T18:40:05.992Z,4.20
2018-03-15T18:42:33.577Z,4.20
2018-03-15T18:45:01.117Z,4.20
2018-03-15T18:47:29.026Z,4.30
2018-03-15T18:49:57.119Z,4.20
2018-03-15T18:52:25.430Z,4.10
2018-03-15T18:54:53.225Z,4.10
2018-03-15T18:57:20.837Z,4.20
2018-03-15T18:59:49.039Z,4.30
2018-03-15T19:02:16.605Z,4.30
2018-03-15T19:04:44.317Z,4.20
2018-03-15T19:07:13.369Z,4.10
2018-03-15T19:09:40.899Z,4.10
2018-03-15T19:12:08.681Z,4.10
2018-03-15T19:14:36.816Z,4.10
2018-03-15T19:17:05.255Z,4.10
2018-03-15T19:19:33.062Z,4.00
2018-03-15T19:22:01.270Z,4.00
2018-03-15T19:24:29.428Z,4.00
2018-03-15T19:26:57.061Z,4.00
2018-03-15T19:29:25.643Z,4.00
2018-03-15T19:31:53.354Z,4.00
2018-03-15T19:34:22.119Z,4.00
2018-03-15T19:36:49.660Z,3.90
2018-03-15T19:39:19.077Z,4.00
2018-03-15T19:41:47.388Z,4.10
2018-03-15T19:44:15.382Z,4.00
2018-03-15T19:46:42.959Z,4.00
2018-03-15T19:49:10.542Z,3.80
2018-03-15T19:51:38.471Z,3.80
2018-03-15T19:54:06.690Z,3.90
2018-03-15T19:56:34.747Z,3.90
2018-03-15T19:59:02.573Z,3.90
2018-03-15T20:01:31.138Z,3.90
2018-03-15T20:03:59.686Z,3.90
2018-03-15T20:06:28.644Z,3.80
2018-03-15T20:08:57.209Z,3.80
2018-03-15T20:11:25.401Z,3.80
2018-03-15T20:13:53.585Z,3.70
2018-03-15T20:16:29.995Z,3.70
2018-03-15T20:19:03.337Z,3.70
2018-03-15T20:21:40.542Z,3.80
2018-03-15T20:24:14.969Z,3.80
2018-03-15T20:26:55.942Z,3.80
2018-03-15T20:29:23.953Z,3.60
2018-03-15T20:31:51.694Z,3.60
2018-03-15T20:34:19.795Z,3.60
2018-03-15T20:36:48.059Z,3.60
2018-03-15T20:39:21.562Z,3.70
2018-03-15T20:41:49.234Z,3.60
2018-03-15T20:44:16.887Z,3.60
2018-03-15T20:46:50.087Z,3.70
2018-03-15T20:49:17.928Z,3.70
2018-03-15T20:51:46.145Z,3.60
2018-03-15T20:54:13.731Z,3.70
2018-03-15T20:56:41.559Z,3.60
2018-03-15T20:59:09.134Z,3.60
2018-03-15T21:01:36.752Z,3.60
2018-03-15T21:04:04.335Z,3.50
2018-03-15T21:06:32.037Z,3.50
2018-03-15T21:08:59.624Z,3.40
2018-03-15T21:11:27.296Z,3.50
2018-03-15T21:13:54.925Z,3.40
2018-03-15T21:16:23.147Z,3.40
2018-03-15T21:18:50.716Z,3.40
2018-03-15T21:21:18.503Z,3.50
2018-03-15T21:23:46.082Z,3.40
2018-03-15T21:26:15.304Z,3.40
2018-03-15T21:28:43.154Z,3.40
2018-03-15T21:31:10.672Z,3.30
2018-03-15T21:33:38.193Z,3.30
2018-03-15T21:36:05.903Z,3.20
2018-03-15T21:38:33.632Z,3.30
2018-03-15T21:41:01.851Z,3.30
2018-03-15T21:43:29.477Z,3.30
2018-03-15T21:45:57.025Z,3.40
2018-03-15T21:48:24.565Z,3.40
2018-03-15T21:50:52.133Z,3.40
2018-03-15T21:53:20.331Z,3.40
2018-03-15T21:55:48.218Z,3.30
2018-03-15T21:58:16.903Z,3.30
2018-03-15T22:00:44.645Z,3.30
2018-03-15T22:03:12.985Z,3.40
2018-03-15T22:05:43.778Z,3.40
2018-03-15T22:08:11.637Z,3.40
2018-03-15T22:10:39.323Z,3.40
2018-03-15T22:13:06.866Z,3.30
2018-03-15T22:15:34.425Z,3.30
2018-03-15T22:18:01.977Z,3.20
2018-03-15T22:20:29.856Z,3.30
2018-03-15T22:22:57.428Z,3.20
2018-03-15T22:25:25.044Z,3.20
2018-03-15T22:27:53.360Z,3.20
2018-03-15T22:30:20.920Z,3.10
2018-03-15T22:32:48.477Z,3.10
2018-03-15T22:35:16.142Z,3.10
2018-03-15T22:37:43.785Z,3.20
2018-03-15T22:40:11.344Z,3.20
2018-03-15T22:42:39.400Z,3.20
2018-03-15T22:45:06.951Z,3.20
2018-03-15T22:47:35.270Z,3.20
2018-03-15T22:50:02.830Z,3.20
2018-03-15T22:52:30.551Z,3.20
2018-03-15T22:54:59.186Z,3.20
2018-03-15T22:57:26.776Z,3.20
2018-03-15T22:59:54.325Z,3.20
2018-03-15T23:02:22.565Z,3.20
2018-03-15T23:04:50.242Z,3.20
2018-03-15T23:07:17.835Z,3.20
2018-03-15T23:09:46.120Z,3.20
2018-03-15T23:12:13.674Z,3.20
2018-03-15T23:14:41.201Z,3.20
2018-03-15T23:17:08.755Z,3.20
2018-03-15T23:19:36.300Z,3.20
2018-03-15T23:22:03.884Z,3.30
2018-03-15T23:24:31.387Z,3.30
2018-03-15T23:26:58.941Z,3.30
2018-03-15T23:29:28.794Z,3.20
2018-03-15T23:31:57.092Z,3.20
2018-03-15T23:34:24.647Z,3.20
2018-03-15T23:36:52.221Z,3.20
2018-03-15T23:39:19.888Z,3.10
2018-03-15T23:41:47.435Z,3.00
2018-03-15T23:44:15.567Z,3.00
2018-03-15T23:46:43.462Z,3.00
2018-03-15T23:49:11.047Z,3.00
2018-03-15T23:51:39.094Z,3.10
2018-03-15T23:54:07.257Z,2.90
2018-03-15T23:56:34.821Z,2.90
2018-03-15T23:59:02.365Z,2.90
